Terminal Aerodrome Forecast
Issued by NWS Shreveport, LA

Home | Current Version | Previous Version | Text Only | Print | Product List | Glossary On
Versions: 1 2 3 4 5 6 7 8 9 10 11 12
000
FTUS44 KSHV 301134
TAFTYR
TAF
KTYR 301134Z 3012/3112 VRB03KT P6SM FEW250
     FM301400 VRB05KT P6SM SCT250
     FM301700 VRB06KT P6SM SCT050 SCT250
     FM310200 06005KT P6SM FEW070 SCT250
     FM310600 08004KT P6SM BKN250=

USA.gov is the U.S. government's official web portal to all federal, state and local government web resources and services.